sensor_id;sensor_type;location;lat;lon;timestamp;P1;durP1;ratioP1;P2;durP2;ratioP2
69789;SDS011;57064;52.046;4.800;2022-12-18T00:00:43;128.15;;;35.17;;
69789;SDS011;57064;52.046;4.800;2022-12-18T00:03:11;137.35;;;33.55;;
69789;SDS011;57064;52.046;4.800;2022-12-18T00:05:45;124.15;;;32.65;;
69789;SDS011;57064;52.046;4.800;2022-12-18T00:08:15;96.97;;;29.52;;
69789;SDS011;57064;52.046;4.800;2022-12-18T00:10:42;123.97;;;33.88;;
69789;SDS011;57064;52.046;4.800;2022-12-18T00:13:08;127.97;;;32.58;;
69789;SDS011;57064;52.046;4.800;2022-12-18T00:15:35;117.47;;;32.45;;
69789;SDS011;57064;52.046;4.800;2022-12-18T00:18:02;123.25;;;32.00;;
69789;SDS011;57064;52.046;4.800;2022-12-18T00:20:28;115.72;;;31.23;;
69789;SDS011;57064;52.046;4.800;2022-12-18T00:22:54;128.93;;;35.97;;
69789;SDS011;57064;52.046;4.800;2022-12-18T00:25:20;111.47;;;32.05;;
69789;SDS011;57064;52.046;4.800;2022-12-18T00:27:47;120.45;;;32.97;;
69789;SDS011;57064;52.046;4.800;2022-12-18T00:30:13;109.00;;;30.27;;
69789;SDS011;57064;52.046;4.800;2022-12-18T00:32:40;115.75;;;29.92;;
69789;SDS011;57064;52.046;4.800;2022-12-18T00:35:06;124.90;;;34.08;;
69789;SDS011;57064;52.046;4.800;2022-12-18T00:37:35;132.43;;;33.35;;
69789;SDS011;57064;52.046;4.800;2022-12-18T00:40:02;97.05;;;30.40;;
69789;SDS011;57064;52.046;4.800;2022-12-18T00:42:28;123.28;;;33.38;;
69789;SDS011;57064;52.046;4.800;2022-12-18T00:45:13;120.40;;;29.10;;
69789;SDS011;57064;52.046;4.800;2022-12-18T00:47:39;115.63;;;32.25;;
69789;SDS011;57064;52.046;4.800;2022-12-18T00:50:06;111.72;;;31.65;;
69789;SDS011;57064;52.046;4.800;2022-12-18T00:52:32;118.35;;;33.35;;
69789;SDS011;57064;52.046;4.800;2022-12-18T00:54:58;96.68;;;30.50;;
69789;SDS011;57064;52.046;4.800;2022-12-18T00:57:24;107.70;;;31.17;;
69789;SDS011;57064;52.046;4.800;2022-12-18T00:59:50;119.47;;;30.30;;
69789;SDS011;57064;52.046;4.800;2022-12-18T01:02:16;128.48;;;33.17;;
69789;SDS011;57064;52.046;4.800;2022-12-18T01:04:42;126.35;;;31.55;;
69789;SDS011;57064;52.046;4.800;2022-12-18T01:07:08;115.40;;;29.70;;
69789;SDS011;57064;52.046;4.800;2022-12-18T01:09:34;102.40;;;31.90;;
69789;SDS011;57064;52.046;4.800;2022-12-18T01:12:01;125.38;;;30.15;;
69789;SDS011;57064;52.046;4.800;2022-12-18T01:14:27;111.25;;;32.08;;
69789;SDS011;57064;52.046;4.800;2022-12-18T01:16:53;105.63;;;30.92;;
69789;SDS011;57064;52.046;4.800;2022-12-18T01:19:19;112.78;;;32.50;;
69789;SDS011;57064;52.046;4.800;2022-12-18T01:21:45;111.43;;;31.55;;
69789;SDS011;57064;52.046;4.800;2022-12-18T01:24:11;119.53;;;33.38;;
69789;SDS011;57064;52.046;4.800;2022-12-18T01:26:37;145.05;;;33.28;;
69789;SDS011;57064;52.046;4.800;2022-12-18T01:29:05;101.55;;;28.17;;
69789;SDS011;57064;52.046;4.800;2022-12-18T01:31:32;106.95;;;28.63;;
69789;SDS011;57064;52.046;4.800;2022-12-18T01:34:02;99.47;;;29.33;;
69789;SDS011;57064;52.046;4.800;2022-12-18T01:36:33;110.85;;;32.20;;
69789;SDS011;57064;52.046;4.800;2022-12-18T01:39:01;122.18;;;30.50;;
69789;SDS011;57064;52.046;4.800;2022-12-18T01:41:30;111.32;;;29.60;;
69789;SDS011;57064;52.046;4.800;2022-12-18T01:47:26;96.03;;;27.13;;
69789;SDS011;57064;52.046;4.800;2022-12-18T01:50:02;92.43;;;26.75;;
69789;SDS011;57064;52.046;4.800;2022-12-18T01:52:32;101.32;;;29.58;;
69789;SDS011;57064;52.046;4.800;2022-12-18T01:54:59;89.95;;;26.20;;
69789;SDS011;57064;52.046;4.800;2022-12-18T01:57:28;93.20;;;27.92;;
69789;SDS011;57064;52.046;4.800;2022-12-18T01:59:55;93.55;;;28.98;;
69789;SDS011;57064;52.046;4.800;2022-12-18T02:02:26;99.82;;;27.27;;
69789;SDS011;57064;52.046;4.800;2022-12-18T02:04:53;100.88;;;25.15;;
69789;SDS011;57064;52.046;4.800;2022-12-18T02:07:22;110.43;;;27.52;;
69789;SDS011;57064;52.046;4.800;2022-12-18T02:10:24;103.03;;;26.95;;
69789;SDS011;57064;52.046;4.800;2022-12-18T02:15:48;82.50;;;25.52;;
69789;SDS011;57064;52.046;4.800;2022-12-18T02:18:27;86.57;;;27.42;;
69789;SDS011;57064;52.046;4.800;2022-12-18T02:28:48;92.82;;;25.88;;
69789;SDS011;57064;52.046;4.800;2022-12-18T02:31:28;99.55;;;27.15;;
69789;SDS011;57064;52.046;4.800;2022-12-18T02:34:00;84.20;;;25.80;;
69789;SDS011;57064;52.046;4.800;2022-12-18T02:36:28;109.60;;;26.48;;
69789;SDS011;57064;52.046;4.800;2022-12-18T02:38:56;77.43;;;24.65;;
69789;SDS011;57064;52.046;4.800;2022-12-18T02:41:23;104.80;;;25.17;;
69789;SDS011;57064;52.046;4.800;2022-12-18T02:43:58;83.05;;;25.52;;
69789;SDS011;57064;52.046;4.800;2022-12-18T02:46:28;79.10;;;25.73;;
69789;SDS011;57064;52.046;4.800;2022-12-18T02:49:01;77.88;;;23.63;;
69789;SDS011;57064;52.046;4.800;2022-12-18T02:51:43;83.63;;;24.67;;
69789;SDS011;57064;52.046;4.800;2022-12-18T02:54:21;96.97;;;25.15;;
69789;SDS011;57064;52.046;4.800;2022-12-18T02:57:12;97.65;;;26.38;;
69789;SDS011;57064;52.046;4.800;2022-12-18T03:00:07;74.50;;;22.23;;
69789;SDS011;57064;52.046;4.800;2022-12-18T03:02:59;95.30;;;26.00;;
69789;SDS011;57064;52.046;4.800;2022-12-18T03:08:38;83.60;;;23.90;;
69789;SDS011;57064;52.046;4.800;2022-12-18T03:11:08;82.30;;;25.60;;
69789;SDS011;57064;52.046;4.800;2022-12-18T03:13:37;80.85;;;25.58;;
69789;SDS011;57064;52.046;4.800;2022-12-18T03:16:05;92.18;;;31.00;;
69789;SDS011;57064;52.046;4.800;2022-12-18T03:18:35;103.15;;;29.27;;
69789;SDS011;57064;52.046;4.800;2022-12-18T03:21:14;91.32;;;28.55;;
69789;SDS011;57064;52.046;4.800;2022-12-18T03:23:43;100.18;;;29.75;;
69789;SDS011;57064;52.046;4.800;2022-12-18T03:26:14;110.93;;;31.45;;
69789;SDS011;57064;52.046;4.800;2022-12-18T03:28:46;106.97;;;30.73;;
69789;SDS011;57064;52.046;4.800;2022-12-18T03:31:22;101.28;;;30.27;;
69789;SDS011;57064;52.046;4.800;2022-12-18T03:33:55;104.78;;;31.00;;
69789;SDS011;57064;52.046;4.800;2022-12-18T03:36:25;92.15;;;29.05;;
69789;SDS011;57064;52.046;4.800;2022-12-18T03:38:55;107.70;;;29.70;;
69789;SDS011;57064;52.046;4.800;2022-12-18T03:44:29;112.53;;;30.75;;
69789;SDS011;57064;52.046;4.800;2022-12-18T03:47:08;103.32;;;28.58;;
69789;SDS011;57064;52.046;4.800;2022-12-18T03:49:56;112.82;;;33.00;;
69789;SDS011;57064;52.046;4.800;2022-12-18T03:52:49;105.10;;;29.70;;
69789;SDS011;57064;52.046;4.800;2022-12-18T03:55:21;104.90;;;32.80;;
69789;SDS011;57064;52.046;4.800;2022-12-18T03:57:49;105.27;;;30.87;;
69789;SDS011;57064;52.046;4.800;2022-12-18T04:00:17;115.73;;;32.00;;
69789;SDS011;57064;52.046;4.800;2022-12-18T04:02:45;113.27;;;30.30;;
69789;SDS011;57064;52.046;4.800;2022-12-18T04:05:17;97.27;;;27.33;;
69789;SDS011;57064;52.046;4.800;2022-12-18T04:07:45;94.37;;;29.40;;
69789;SDS011;57064;52.046;4.800;2022-12-18T04:10:12;85.97;;;27.23;;
69789;SDS011;57064;52.046;4.800;2022-12-18T04:12:39;98.50;;;29.03;;
69789;SDS011;57064;52.046;4.800;2022-12-18T04:15:07;103.37;;;29.67;;
69789;SDS011;57064;52.046;4.800;2022-12-18T04:17:34;85.97;;;25.23;;
69789;SDS011;57064;52.046;4.800;2022-12-18T04:20:00;82.50;;;25.67;;
69789;SDS011;57064;52.046;4.800;2022-12-18T04:22:26;87.67;;;25.90;;
69789;SDS011;57064;52.046;4.800;2022-12-18T04:24:52;79.37;;;27.63;;
69789;SDS011;57064;52.046;4.800;2022-12-18T04:27:18;75.03;;;24.80;;
69789;SDS011;57064;52.046;4.800;2022-12-18T04:29:44;90.07;;;28.00;;
69789;SDS011;57064;52.046;4.800;2022-12-18T04:32:10;74.43;;;27.03;;
69789;SDS011;57064;52.046;4.800;2022-12-18T04:34:36;84.47;;;26.87;;
69789;SDS011;57064;52.046;4.800;2022-12-18T04:37:02;71.93;;;23.13;;
69789;SDS011;57064;52.046;4.800;2022-12-18T04:39:29;73.27;;;24.93;;
69789;SDS011;57064;52.046;4.800;2022-12-18T04:41:55;75.13;;;26.27;;
69789;SDS011;57064;52.046;4.800;2022-12-18T04:44:21;87.53;;;23.97;;
69789;SDS011;57064;52.046;4.800;2022-12-18T04:46:47;74.53;;;24.60;;
69789;SDS011;57064;52.046;4.800;2022-12-18T04:49:14;87.97;;;26.00;;
69789;SDS011;57064;52.046;4.800;2022-12-18T04:51:40;75.17;;;25.90;;
69789;SDS011;57064;52.046;4.800;2022-12-18T04:54:06;80.63;;;24.97;;
69789;SDS011;57064;52.046;4.800;2022-12-18T04:56:32;80.57;;;25.63;;
69789;SDS011;57064;52.046;4.800;2022-12-18T04:58:58;68.07;;;22.50;;
69789;SDS011;57064;52.046;4.800;2022-12-18T05:01:24;68.93;;;22.37;;
69789;SDS011;57064;52.046;4.800;2022-12-18T05:03:50;69.77;;;24.90;;
69789;SDS011;57064;52.046;4.800;2022-12-18T05:06:17;62.13;;;23.07;;
69789;SDS011;57064;52.046;4.800;2022-12-18T05:08:43;64.87;;;24.40;;
69789;SDS011;57064;52.046;4.800;2022-12-18T05:11:12;76.63;;;23.27;;
69789;SDS011;57064;52.046;4.800;2022-12-18T05:13:43;78.13;;;24.70;;
69789;SDS011;57064;52.046;4.800;2022-12-18T05:16:09;69.00;;;22.27;;
69789;SDS011;57064;52.046;4.800;2022-12-18T05:18:36;77.50;;;24.30;;
69789;SDS011;57064;52.046;4.800;2022-12-18T05:21:03;57.60;;;20.67;;
69789;SDS011;57064;52.046;4.800;2022-12-18T05:23:29;67.73;;;24.57;;
69789;SDS011;57064;52.046;4.800;2022-12-18T05:28:24;78.03;;;23.17;;
69789;SDS011;57064;52.046;4.800;2022-12-18T05:30:52;74.90;;;23.77;;
69789;SDS011;57064;52.046;4.800;2022-12-18T05:33:20;68.77;;;23.40;;
69789;SDS011;57064;52.046;4.800;2022-12-18T05:35:54;65.40;;;24.10;;
69789;SDS011;57064;52.046;4.800;2022-12-18T05:38:23;75.93;;;23.37;;
69789;SDS011;57064;52.046;4.800;2022-12-18T05:40:51;74.00;;;23.93;;
69789;SDS011;57064;52.046;4.800;2022-12-18T05:43:19;75.53;;;25.30;;
69789;SDS011;57064;52.046;4.800;2022-12-18T05:45:46;68.83;;;23.73;;
69789;SDS011;57064;52.046;4.800;2022-12-18T05:48:13;70.23;;;24.40;;
69789;SDS011;57064;52.046;4.800;2022-12-18T05:50:40;64.13;;;21.77;;
69789;SDS011;57064;52.046;4.800;2022-12-18T05:53:07;61.00;;;20.73;;
69789;SDS011;57064;52.046;4.800;2022-12-18T05:55:37;67.73;;;23.73;;
69789;SDS011;57064;52.046;4.800;2022-12-18T05:58:05;62.60;;;22.77;;
69789;SDS011;57064;52.046;4.800;2022-12-18T06:00:33;69.40;;;22.07;;
69789;SDS011;57064;52.046;4.800;2022-12-18T06:03:01;55.20;;;19.93;;
69789;SDS011;57064;52.046;4.800;2022-12-18T06:05:27;61.03;;;23.13;;
69789;SDS011;57064;52.046;4.800;2022-12-18T06:07:53;71.13;;;23.70;;
69789;SDS011;57064;52.046;4.800;2022-12-18T06:10:19;62.50;;;23.53;;
69789;SDS011;57064;52.046;4.800;2022-12-18T06:12:45;58.57;;;21.47;;
69789;SDS011;57064;52.046;4.800;2022-12-18T06:15:11;56.90;;;21.17;;
69789;SDS011;57064;52.046;4.800;2022-12-18T06:17:37;61.97;;;20.90;;
69789;SDS011;57064;52.046;4.800;2022-12-18T06:20:04;60.13;;;21.87;;
69789;SDS011;57064;52.046;4.800;2022-12-18T06:22:31;67.67;;;22.07;;
69789;SDS011;57064;52.046;4.800;2022-12-18T06:24:57;67.63;;;23.20;;
69789;SDS011;57064;52.046;4.800;2022-12-18T06:27:24;53.70;;;21.43;;
69789;SDS011;57064;52.046;4.800;2022-12-18T06:29:50;59.97;;;21.60;;
69789;SDS011;57064;52.046;4.800;2022-12-18T06:32:16;61.47;;;21.70;;
69789;SDS011;57064;52.046;4.800;2022-12-18T06:34:42;56.57;;;22.93;;
69789;SDS011;57064;52.046;4.800;2022-12-18T06:37:08;70.87;;;25.13;;
69789;SDS011;57064;52.046;4.800;2022-12-18T06:39:34;66.93;;;23.10;;
69789;SDS011;57064;52.046;4.800;2022-12-18T06:42:00;63.50;;;23.00;;
69789;SDS011;57064;52.046;4.800;2022-12-18T06:44:26;63.30;;;25.80;;
69789;SDS011;57064;52.046;4.800;2022-12-18T06:46:52;62.80;;;24.37;;
69789;SDS011;57064;52.046;4.800;2022-12-18T06:49:18;64.67;;;25.87;;
69789;SDS011;57064;52.046;4.800;2022-12-18T06:51:44;65.67;;;23.63;;
69789;SDS011;57064;52.046;4.800;2022-12-18T06:54:10;64.60;;;27.13;;
69789;SDS011;57064;52.046;4.800;2022-12-18T06:56:37;66.73;;;25.30;;
69789;SDS011;57064;52.046;4.800;2022-12-18T06:59:03;71.83;;;28.20;;
69789;SDS011;57064;52.046;4.800;2022-12-18T07:01:29;65.53;;;26.57;;
69789;SDS011;57064;52.046;4.800;2022-12-18T07:03:56;72.80;;;28.90;;
69789;SDS011;57064;52.046;4.800;2022-12-18T07:06:23;68.43;;;26.57;;
69789;SDS011;57064;52.046;4.800;2022-12-18T07:08:50;81.33;;;27.83;;
69789;SDS011;57064;52.046;4.800;2022-12-18T07:11:18;69.60;;;27.77;;
69789;SDS011;57064;52.046;4.800;2022-12-18T07:13:44;68.30;;;26.63;;
69789;SDS011;57064;52.046;4.800;2022-12-18T07:16:11;72.50;;;27.37;;
69789;SDS011;57064;52.046;4.800;2022-12-18T07:18:39;75.00;;;28.40;;
69789;SDS011;57064;52.046;4.800;2022-12-18T07:21:06;72.40;;;28.43;;
69789;SDS011;57064;52.046;4.800;2022-12-18T07:23:33;67.07;;;26.63;;
69789;SDS011;57064;52.046;4.800;2022-12-18T07:26:04;77.43;;;29.13;;
69789;SDS011;57064;52.046;4.800;2022-12-18T07:28:31;70.27;;;26.23;;
69789;SDS011;57064;52.046;4.800;2022-12-18T07:31:01;68.53;;;27.23;;
69789;SDS011;57064;52.046;4.800;2022-12-18T07:33:28;73.30;;;27.77;;
69789;SDS011;57064;52.046;4.800;2022-12-18T07:35:54;60.10;;;27.07;;
69789;SDS011;57064;52.046;4.800;2022-12-18T07:38:21;60.13;;;25.63;;
69789;SDS011;57064;52.046;4.800;2022-12-18T07:40:47;64.27;;;27.50;;
69789;SDS011;57064;52.046;4.800;2022-12-18T07:43:13;68.70;;;24.40;;
69789;SDS011;57064;52.046;4.800;2022-12-18T07:45:39;67.20;;;25.67;;
69789;SDS011;57064;52.046;4.800;2022-12-18T07:48:07;64.77;;;25.73;;
69789;SDS011;57064;52.046;4.800;2022-12-18T07:50:33;69.67;;;26.53;;
69789;SDS011;57064;52.046;4.800;2022-12-18T07:52:59;60.83;;;24.40;;
69789;SDS011;57064;52.046;4.800;2022-12-18T07:55:28;63.40;;;25.13;;
69789;SDS011;57064;52.046;4.800;2022-12-18T07:57:55;63.33;;;25.57;;
69789;SDS011;57064;52.046;4.800;2022-12-18T08:00:21;72.40;;;26.17;;
69789;SDS011;57064;52.046;4.800;2022-12-18T08:02:48;66.53;;;25.73;;
69789;SDS011;57064;52.046;4.800;2022-12-18T08:05:14;67.67;;;28.17;;
69789;SDS011;57064;52.046;4.800;2022-12-18T08:07:40;60.00;;;24.37;;
69789;SDS011;57064;52.046;4.800;2022-12-18T08:10:06;67.17;;;26.10;;
69789;SDS011;57064;52.046;4.800;2022-12-18T08:12:32;62.00;;;24.53;;
69789;SDS011;57064;52.046;4.800;2022-12-18T08:14:58;65.10;;;25.33;;
69789;SDS011;57064;52.046;4.800;2022-12-18T08:17:24;71.97;;;30.80;;
69789;SDS011;57064;52.046;4.800;2022-12-18T08:19:50;75.07;;;29.33;;
69789;SDS011;57064;52.046;4.800;2022-12-18T08:22:16;67.70;;;27.50;;
69789;SDS011;57064;52.046;4.800;2022-12-18T08:24:42;68.70;;;25.73;;
69789;SDS011;57064;52.046;4.800;2022-12-18T08:27:09;64.07;;;26.67;;
69789;SDS011;57064;52.046;4.800;2022-12-18T08:29:35;63.83;;;25.27;;
69789;SDS011;57064;52.046;4.800;2022-12-18T08:32:02;73.50;;;27.30;;
69789;SDS011;57064;52.046;4.800;2022-12-18T08:34:28;78.60;;;28.43;;
69789;SDS011;57064;52.046;4.800;2022-12-18T08:36:54;60.60;;;26.77;;
69789;SDS011;57064;52.046;4.800;2022-12-18T08:39:20;57.57;;;23.50;;
69789;SDS011;57064;52.046;4.800;2022-12-18T08:41:46;59.97;;;24.57;;
69789;SDS011;57064;52.046;4.800;2022-12-18T08:44:32;76.00;;;26.47;;
69789;SDS011;57064;52.046;4.800;2022-12-18T08:49:32;55.43;;;23.93;;
69789;SDS011;57064;52.046;4.800;2022-12-18T08:51:58;71.10;;;24.33;;
69789;SDS011;57064;52.046;4.800;2022-12-18T08:54:24;67.83;;;25.63;;
69789;SDS011;57064;52.046;4.800;2022-12-18T08:56:51;75.33;;;28.50;;
69789;SDS011;57064;52.046;4.800;2022-12-18T08:59:17;78.93;;;31.50;;
69789;SDS011;57064;52.046;4.800;2022-12-18T09:01:44;60.87;;;24.90;;
69789;SDS011;57064;52.046;4.800;2022-12-18T09:04:11;76.63;;;28.20;;
69789;SDS011;57064;52.046;4.800;2022-12-18T09:06:38;101.60;;;42.43;;
69789;SDS011;57064;52.046;4.800;2022-12-18T09:09:05;61.77;;;27.13;;
69789;SDS011;57064;52.046;4.800;2022-12-18T09:11:31;66.60;;;27.27;;
69789;SDS011;57064;52.046;4.800;2022-12-18T09:13:59;66.43;;;26.80;;
69789;SDS011;57064;52.046;4.800;2022-12-18T09:16:26;64.40;;;25.20;;
69789;SDS011;57064;52.046;4.800;2022-12-18T09:18:54;72.13;;;27.37;;
69789;SDS011;57064;52.046;4.800;2022-12-18T09:21:24;61.03;;;25.50;;
69789;SDS011;57064;52.046;4.800;2022-12-18T09:23:53;59.77;;;25.43;;
69789;SDS011;57064;52.046;4.800;2022-12-18T09:26:20;63.10;;;25.00;;
69789;SDS011;57064;52.046;4.800;2022-12-18T09:28:47;63.63;;;25.87;;
69789;SDS011;57064;52.046;4.800;2022-12-18T09:31:13;63.30;;;26.13;;
69789;SDS011;57064;52.046;4.800;2022-12-18T09:33:40;60.80;;;26.33;;
69789;SDS011;57064;52.046;4.800;2022-12-18T09:36:08;62.60;;;26.17;;
69789;SDS011;57064;52.046;4.800;2022-12-18T09:38:37;58.27;;;24.40;;
69789;SDS011;57064;52.046;4.800;2022-12-18T09:44:01;59.33;;;24.43;;
69789;SDS011;57064;52.046;4.800;2022-12-18T09:46:51;61.47;;;25.87;;
69789;SDS011;57064;52.046;4.800;2022-12-18T09:49:30;60.50;;;26.13;;
69789;SDS011;57064;52.046;4.800;2022-12-18T09:52:08;62.10;;;27.35;;
69789;SDS011;57064;52.046;4.800;2022-12-18T09:55:03;66.97;;;27.77;;
69789;SDS011;57064;52.046;4.800;2022-12-18T09:57:51;62.77;;;26.13;;
69789;SDS011;57064;52.046;4.800;2022-12-18T10:02:47;56.85;;;23.27;;
69789;SDS011;57064;52.046;4.800;2022-12-18T10:05:26;59.87;;;26.63;;
69789;SDS011;57064;52.046;4.800;2022-12-18T10:16:02;64.00;;;26.40;;
69789;SDS011;57064;52.046;4.800;2022-12-18T10:24:47;52.08;;;22.23;;
69789;SDS011;57064;52.046;4.800;2022-12-18T10:27:16;58.63;;;25.13;;
69789;SDS011;57064;52.046;4.800;2022-12-18T10:29:47;57.40;;;26.52;;
69789;SDS011;57064;52.046;4.800;2022-12-18T10:32:27;52.85;;;24.40;;
69789;SDS011;57064;52.046;4.800;2022-12-18T10:34:55;54.78;;;26.33;;
69789;SDS011;57064;52.046;4.800;2022-12-18T10:37:23;64.07;;;26.13;;
69789;SDS011;57064;52.046;4.800;2022-12-18T10:42:35;64.82;;;26.92;;
69789;SDS011;57064;52.046;4.800;2022-12-18T10:45:12;62.33;;;26.95;;
69789;SDS011;57064;52.046;4.800;2022-12-18T10:47:43;53.63;;;24.50;;
69789;SDS011;57064;52.046;4.800;2022-12-18T10:52:57;58.50;;;23.30;;
69789;SDS011;57064;52.046;4.800;2022-12-18T10:55:32;58.00;;;23.73;;
69789;SDS011;57064;52.046;4.800;2022-12-18T11:08:30;47.53;;;23.00;;
69789;SDS011;57064;52.046;4.800;2022-12-18T11:10:56;49.53;;;21.02;;
69789;SDS011;57064;52.046;4.800;2022-12-18T11:13:23;44.90;;;21.48;;
69789;SDS011;57064;52.046;4.800;2022-12-18T11:15:51;46.20;;;21.98;;
69789;SDS011;57064;52.046;4.800;2022-12-18T11:18:28;45.00;;;21.17;;
69789;SDS011;57064;52.046;4.800;2022-12-18T11:20:59;41.47;;;19.65;;
69789;SDS011;57064;52.046;4.800;2022-12-18T11:23:31;49.33;;;21.20;;
69789;SDS011;57064;52.046;4.800;2022-12-18T11:25:58;53.80;;;22.77;;
69789;SDS011;57064;52.046;4.800;2022-12-18T11:28:28;43.58;;;21.50;;
69789;SDS011;57064;52.046;4.800;2022-12-18T11:36:23;50.97;;;19.98;;
69789;SDS011;57064;52.046;4.800;2022-12-18T11:38:51;46.85;;;19.60;;
69789;SDS011;57064;52.046;4.800;2022-12-18T11:44:38;44.70;;;20.10;;
69789;SDS011;57064;52.046;4.800;2022-12-18T11:50:33;38.78;;;17.52;;
69789;SDS011;57064;52.046;4.800;2022-12-18T11:53:24;40.60;;;18.33;;
69789;SDS011;57064;52.046;4.800;2022-12-18T12:04:11;37.72;;;16.90;;
69789;SDS011;57064;52.046;4.800;2022-12-18T12:09:47;36.63;;;16.15;;
69789;SDS011;57064;52.046;4.800;2022-12-18T12:26:27;32.33;;;15.57;;
69789;SDS011;57064;52.046;4.800;2022-12-18T12:37:30;31.98;;;17.23;;
69789;SDS011;57064;52.046;4.800;2022-12-18T12:40:05;39.13;;;17.40;;
69789;SDS011;57064;52.046;4.800;2022-12-18T12:42:36;33.13;;;15.73;;
69789;SDS011;57064;52.046;4.800;2022-12-18T12:45:26;35.50;;;16.17;;
69789;SDS011;57064;52.046;4.800;2022-12-18T12:48:19;32.35;;;16.63;;
69789;SDS011;57064;52.046;4.800;2022-12-18T12:50:51;32.85;;;15.35;;
69789;SDS011;57064;52.046;4.800;2022-12-18T12:53:29;37.10;;;17.02;;
69789;SDS011;57064;52.046;4.800;2022-12-18T12:56:00;36.80;;;16.08;;
69789;SDS011;57064;52.046;4.800;2022-12-18T13:01:20;33.38;;;15.82;;
69789;SDS011;57064;52.046;4.800;2022-12-18T13:04:02;28.73;;;15.93;;
69789;SDS011;57064;52.046;4.800;2022-12-18T13:06:32;37.95;;;16.83;;
69789;SDS011;57064;52.046;4.800;2022-12-18T13:09:05;37.55;;;16.90;;
69789;SDS011;57064;52.046;4.800;2022-12-18T13:14:37;38.97;;;18.52;;
69789;SDS011;57064;52.046;4.800;2022-12-18T13:19:49;39.45;;;18.80;;
69789;SDS011;57064;52.046;4.800;2022-12-18T13:22:24;38.17;;;19.70;;
69789;SDS011;57064;52.046;4.800;2022-12-18T13:24:56;39.63;;;18.88;;
69789;SDS011;57064;52.046;4.800;2022-12-18T13:40:58;55.13;;;23.55;;
69789;SDS011;57064;52.046;4.800;2022-12-18T13:43:29;45.45;;;20.27;;
69789;SDS011;57064;52.046;4.800;2022-12-18T13:46:01;40.85;;;18.13;;
69789;SDS011;57064;52.046;4.800;2022-12-18T13:51:27;38.33;;;18.20;;
69789;SDS011;57064;52.046;4.800;2022-12-18T13:54:06;34.42;;;17.17;;
69789;SDS011;57064;52.046;4.800;2022-12-18T13:56:43;36.25;;;16.77;;
69789;SDS011;57064;52.046;4.800;2022-12-18T13:59:26;48.08;;;22.15;;
69789;SDS011;57064;52.046;4.800;2022-12-18T14:02:11;37.75;;;19.42;;
69789;SDS011;57064;52.046;4.800;2022-12-18T14:04:44;37.65;;;18.23;;
69789;SDS011;57064;52.046;4.800;2022-12-18T14:07:15;38.08;;;18.85;;
69789;SDS011;57064;52.046;4.800;2022-12-18T14:09:55;41.78;;;18.42;;
69789;SDS011;57064;52.046;4.800;2022-12-18T14:12:24;35.75;;;16.38;;
69789;SDS011;57064;52.046;4.800;2022-12-18T14:17:57;41.17;;;17.90;;
69789;SDS011;57064;52.046;4.800;2022-12-18T14:20:26;36.25;;;16.50;;
69789;SDS011;57064;52.046;4.800;2022-12-18T14:22:54;35.17;;;16.55;;
69789;SDS011;57064;52.046;4.800;2022-12-18T14:25:22;35.15;;;18.00;;
69789;SDS011;57064;52.046;4.800;2022-12-18T14:27:50;41.38;;;18.65;;
69789;SDS011;57064;52.046;4.800;2022-12-18T14:30:32;37.33;;;17.85;;
69789;SDS011;57064;52.046;4.800;2022-12-18T14:33:08;36.92;;;17.63;;
69789;SDS011;57064;52.046;4.800;2022-12-18T14:35:36;36.72;;;17.30;;
69789;SDS011;57064;52.046;4.800;2022-12-18T14:38:11;36.60;;;17.77;;
69789;SDS011;57064;52.046;4.800;2022-12-18T14:43:48;31.73;;;16.83;;
69789;SDS011;57064;52.046;4.800;2022-12-18T14:46:28;41.75;;;17.25;;
69789;SDS011;57064;52.046;4.800;2022-12-18T14:48:55;36.50;;;17.52;;
69789;SDS011;57064;52.046;4.800;2022-12-18T14:51:26;43.70;;;21.38;;
69789;SDS011;57064;52.046;4.800;2022-12-18T14:54:00;34.55;;;18.80;;
69789;SDS011;57064;52.046;4.800;2022-12-18T14:56:35;37.55;;;18.85;;
69789;SDS011;57064;52.046;4.800;2022-12-18T14:59:17;41.90;;;18.52;;
69789;SDS011;57064;52.046;4.800;2022-12-18T15:04:24;36.27;;;17.57;;
69789;SDS011;57064;52.046;4.800;2022-12-18T15:07:08;37.03;;;16.52;;
69789;SDS011;57064;52.046;4.800;2022-12-18T15:10:09;36.50;;;17.20;;
69789;SDS011;57064;52.046;4.800;2022-12-18T15:12:44;35.85;;;17.75;;
69789;SDS011;57064;52.046;4.800;2022-12-18T15:20:25;44.28;;;18.98;;
69789;SDS011;57064;52.046;4.800;2022-12-18T15:22:52;41.40;;;17.52;;
69789;SDS011;57064;52.046;4.800;2022-12-18T15:25:28;40.30;;;18.27;;
69789;SDS011;57064;52.046;4.800;2022-12-18T15:28:01;39.30;;;17.98;;
69789;SDS011;57064;52.046;4.800;2022-12-18T15:30:28;49.58;;;20.52;;
69789;SDS011;57064;52.046;4.800;2022-12-18T15:36:00;49.38;;;21.73;;
69789;SDS011;57064;52.046;4.800;2022-12-18T15:38:33;43.25;;;18.15;;
69789;SDS011;57064;52.046;4.800;2022-12-18T15:40:59;35.30;;;18.23;;
69789;SDS011;57064;52.046;4.800;2022-12-18T15:43:27;40.25;;;18.13;;
69789;SDS011;57064;52.046;4.800;2022-12-18T15:48:27;33.92;;;17.00;;
69789;SDS011;57064;52.046;4.800;2022-12-18T15:50:53;40.63;;;19.08;;
69789;SDS011;57064;52.046;4.800;2022-12-18T15:53:22;38.20;;;17.70;;
69789;SDS011;57064;52.046;4.800;2022-12-18T15:55:49;36.13;;;15.02;;
69789;SDS011;57064;52.046;4.800;2022-12-18T15:58:34;37.58;;;18.00;;
69789;SDS011;57064;52.046;4.800;2022-12-18T16:01:00;33.38;;;17.73;;
69789;SDS011;57064;52.046;4.800;2022-12-18T16:03:27;42.33;;;17.77;;
69789;SDS011;57064;52.046;4.800;2022-12-18T16:05:53;40.55;;;18.50;;
69789;SDS011;57064;52.046;4.800;2022-12-18T16:08:19;33.42;;;16.98;;
69789;SDS011;57064;52.046;4.800;2022-12-18T16:10:45;34.72;;;18.35;;
69789;SDS011;57064;52.046;4.800;2022-12-18T16:13:15;35.85;;;16.90;;
69789;SDS011;57064;52.046;4.800;2022-12-18T16:15:43;39.92;;;17.83;;
69789;SDS011;57064;52.046;4.800;2022-12-18T16:18:10;37.40;;;16.75;;
69789;SDS011;57064;52.046;4.800;2022-12-18T16:20:36;31.92;;;17.10;;
69789;SDS011;57064;52.046;4.800;2022-12-18T16:23:03;40.83;;;17.83;;
69789;SDS011;57064;52.046;4.800;2022-12-18T16:25:30;35.00;;;16.38;;
69789;SDS011;57064;52.046;4.800;2022-12-18T16:27:56;35.65;;;16.15;;
69789;SDS011;57064;52.046;4.800;2022-12-18T16:30:23;36.33;;;16.02;;
69789;SDS011;57064;52.046;4.800;2022-12-18T16:32:52;35.72;;;17.10;;
69789;SDS011;57064;52.046;4.800;2022-12-18T16:35:19;37.55;;;16.33;;
69789;SDS011;57064;52.046;4.800;2022-12-18T16:37:46;38.20;;;17.20;;
69789;SDS011;57064;52.046;4.800;2022-12-18T16:40:13;34.78;;;15.70;;
69789;SDS011;57064;52.046;4.800;2022-12-18T16:42:41;39.85;;;17.55;;
69789;SDS011;57064;52.046;4.800;2022-12-18T16:45:09;34.08;;;16.38;;
69789;SDS011;57064;52.046;4.800;2022-12-18T16:47:36;37.33;;;17.50;;
69789;SDS011;57064;52.046;4.800;2022-12-18T16:50:03;41.05;;;18.38;;
69789;SDS011;57064;52.046;4.800;2022-12-18T16:52:30;39.63;;;18.63;;
69789;SDS011;57064;52.046;4.800;2022-12-18T16:54:56;35.92;;;16.90;;
69789;SDS011;57064;52.046;4.800;2022-12-18T16:57:22;37.00;;;15.80;;
69789;SDS011;57064;52.046;4.800;2022-12-18T16:59:49;36.35;;;16.83;;
69789;SDS011;57064;52.046;4.800;2022-12-18T17:02:16;32.00;;;16.55;;
69789;SDS011;57064;52.046;4.800;2022-12-18T17:04:44;41.45;;;18.95;;